Time;durP1;ratioP1;P1;durP2;ratioP2;P2;SDS_P1;SDS_P2;PMS_P1;PMS_P2;Temp;Humidity;BMP_temperature;BMP_pressure;BME280_temperature;BME280_humidity;BME280_pressure;Samples;Min_cycle;Max_cycle;Signal;HPM_P1;HPM_P2
2022/11/15 00:01:21;;;;;;;12.30;9.88;;;11.70;71.70;;;;;;4993630;28;20181;-49
2022/11/15 00:04:07;;;;;;;11.65;10.15;;;11.70;71.70;;;;;;4998360;28;20409;-47
2022/11/15 00:06:55;;;;;;;12.02;10.02;;;11.70;71.60;;;;;;5026337;28;20072;-47
2022/11/15 00:09:51;;;;;;;12.95;10.50;;;11.70;72.30;;;;;;5029023;28;20065;-49
2022/11/15 00:12:39;;;;;;;12.23;10.20;;;11.70;71.90;;;;;;5022948;28;20112;-48
2022/11/15 00:15:24;;;;;;;12.30;9.60;;;11.70;71.70;;;;;;5014330;28;20123;-48
2022/11/15 00:18:15;;;;;;;13.60;9.63;;;11.70;71.60;;;;;;5024454;28;20644;-48
2022/11/15 00:21:09;;;;;;;12.40;10.07;;;11.70;71.60;;;;;;5026406;28;20422;-48
2022/11/15 00:23:54;;;;;;;12.45;9.95;;;11.70;71.70;;;;;;5019427;28;20212;-48
2022/11/15 00:26:40;;;;;;;11.52;9.48;;;11.70;71.40;;;;;;5028260;28;20056;-48
2022/11/15 00:29:27;;;;;;;13.38;9.80;;;11.70;71.50;;;;;;5021060;28;20038;-47
2022/11/15 00:32:12;;;;;;;13.82;10.27;;;11.70;71.60;;;;;;5006380;28;20049;-47
2022/11/15 00:34:58;;;;;;;13.00;10.00;;;11.70;71.70;;;;;;5021874;28;20541;-46
2022/11/15 00:37:47;;;;;;;12.80;9.93;;;11.70;71.90;;;;;;5028503;28;20053;-48
2022/11/15 00:40:35;;;;;;;10.20;9.00;;;11.60;71.90;;;;;;5019207;28;20184;-51
2022/11/15 00:43:20;;;;;;;12.60;9.95;;;11.70;72.00;;;;;;5013451;28;20049;-51
2022/11/15 00:46:08;;;;;;;12.00;9.57;;;11.70;72.10;;;;;;5031269;28;20051;-49
2022/11/15 00:48:55;;;;;;;13.45;10.02;;;11.70;72.10;;;;;;5023861;28;20410;-51
2022/11/15 00:51:41;;;;;;;13.57;10.25;;;11.70;72.20;;;;;;5016635;28;20078;-51
2022/11/15 00:54:29;;;;;;;12.75;9.88;;;11.60;72.20;;;;;;5011728;28;20135;-51
2022/11/15 00:57:17;;;;;;;10.82;9.60;;;11.70;72.40;;;;;;5011283;28;20478;-48
2022/11/15 01:00:03;;;;;;;14.68;10.73;;;11.70;72.40;;;;;;5006708;28;20061;-51
2022/11/15 01:02:50;;;;;;;13.07;9.90;;;11.70;72.50;;;;;;5021126;28;20061;-47
2022/11/15 01:05:37;;;;;;;11.88;9.95;;;11.70;72.50;;;;;;5027182;28;20184;-50
2022/11/15 01:08:23;;;;;;;13.85;10.25;;;11.70;72.50;;;;;;5011032;28;20064;-51
2022/11/15 01:11:11;;;;;;;11.77;10.07;;;11.70;72.60;;;;;;5022880;28;20049;-51
2022/11/15 01:13:58;;;;;;;12.93;9.77;;;11.70;72.70;;;;;;5023022;28;20063;-48
2022/11/15 01:16:46;;;;;;;13.27;9.93;;;11.70;72.70;;;;;;5019561;28;20102;-48
2022/11/15 01:19:32;;;;;;;11.63;9.75;;;11.70;72.70;;;;;;5014843;28;20056;-47
2022/11/15 01:22:17;;;;;;;12.75;10.05;;;11.70;72.70;;;;;;5012779;28;20064;-50
2022/11/15 01:25:05;;;;;;;11.75;9.65;;;11.70;72.70;;;;;;5008475;28;20068;-48
2022/11/15 01:27:55;;;;;;;9.68;8.50;;;11.70;72.70;;;;;;5011164;28;20181;-50
2022/11/15 01:30:42;;;;;;;12.20;9.13;;;11.70;72.70;;;;;;5017875;28;20632;-47
2022/11/15 01:33:29;;;;;;;11.45;9.00;;;11.70;72.70;;;;;;5021565;28;20533;-51
2022/11/15 01:36:18;;;;;;;12.35;10.00;;;11.60;72.80;;;;;;5016314;28;20512;-50
2022/11/15 01:39:08;;;;;;;12.32;9.95;;;11.60;73.10;;;;;;5021460;28;20208;-48
2022/11/15 01:41:55;;;;;;;10.50;9.40;;;11.60;73.30;;;;;;5028497;28;20107;-49
2022/11/15 01:44:54;;;;;;;11.15;9.40;;;11.50;73.30;;;;;;5026444;28;20045;-46
2022/11/15 01:47:45;;;;;;;13.43;8.93;;;11.50;73.80;;;;;;5011843;28;20418;-48
2022/11/15 01:50:35;;;;;;;11.35;9.70;;;11.50;73.50;;;;;;5014585;28;20077;-51
2022/11/15 01:53:25;;;;;;;11.80;9.55;;;11.50;73.70;;;;;;5010444;28;20056;-51
2022/11/15 01:56:16;;;;;;;13.90;9.50;;;11.50;73.80;;;;;;5011415;28;20127;-48
2022/11/15 01:59:05;;;;;;;13.40;10.15;;;11.50;74.30;;;;;;5020313;28;20061;-52
2022/11/15 02:01:50;;;;;;;12.68;9.45;;;11.50;74.60;;;;;;5027900;28;20064;-50
2022/11/15 02:04:45;;;;;;;10.82;8.27;;;11.50;74.80;;;;;;5016423;28;20517;-48
2022/11/15 02:07:35;;;;;;;11.98;9.57;;;11.60;75.20;;;;;;5018071;28;20126;-51
2022/11/15 02:10:24;;;;;;;11.05;9.40;;;11.60;75.50;;;;;;5021382;28;20070;-49
2022/11/15 02:13:10;;;;;;;11.85;9.70;;;11.70;75.50;;;;;;5040232;28;20168;-51
2022/11/15 02:16:01;;;;;;;11.25;8.85;;;11.70;75.60;;;;;;5029504;28;20053;-50
2022/11/15 02:19:36;;;;;;;12.05;9.13;;;11.80;76.10;;;;;;5031475;28;20584;-49
2022/11/15 02:23:11;;;;;;;12.05;9.02;;;11.90;76.80;;;;;;5020948;28;20442;-49
2022/11/15 02:26:07;;;;;;;10.47;8.43;;;11.90;77.00;;;;;;5013481;28;20056;-49
2022/11/15 02:29:23;;;;;;;14.23;9.35;;;12.00;76.40;;;;;;5026235;28;21140;-49
2022/11/15 02:32:18;;;;;;;10.07;7.93;;;12.10;76.50;;;;;;5029803;28;20895;-50
2022/11/15 02:35:24;;;;;;;10.98;8.60;;;12.20;76.20;;;;;;5017823;28;20521;-49
2022/11/15 02:38:35;;;;;;;10.18;8.38;;;12.20;76.70;;;;;;5026480;28;20607;-46
2022/11/15 02:41:30;;;;;;;10.10;7.53;;;12.30;76.70;;;;;;5032339;28;20059;-45
2022/11/15 02:44:28;;;;;;;9.02;8.07;;;12.40;76.10;;;;;;5012992;28;20098;-48
2022/11/15 02:47:19;;;;;;;12.73;8.82;;;12.40;76.40;;;;;;5014775;28;20092;-47
2022/11/15 02:50:11;;;;;;;11.32;8.13;;;12.50;76.20;;;;;;5014710;28;20518;-50
2022/11/15 02:53:07;;;;;;;10.20;7.80;;;12.50;76.40;;;;;;5016006;28;20057;-50
2022/11/15 02:55:54;;;;;;;9.25;8.30;;;12.60;76.30;;;;;;5023073;28;20119;-45
2022/11/15 02:59:10;;;;;;;10.10;8.65;;;12.60;76.00;;;;;;5029121;28;20062;-49
2022/11/15 03:02:12;;;;;;;10.13;7.68;;;12.70;76.50;;;;;;5015875;28;20576;-45
2022/11/15 03:05:26;;;;;;;8.65;7.18;;;12.70;76.10;;;;;;5023565;28;20135;-47
2022/11/15 03:08:28;;;;;;;9.52;7.22;;;12.80;75.80;;;;;;4994102;28;20104;-46
2022/11/15 03:11:19;;;;;;;9.57;7.65;;;12.80;75.70;;;;;;5014991;28;20044;-49
2022/11/15 03:14:26;;;;;;;9.93;7.03;;;12.80;75.70;;;;;;5025351;28;20473;-49
2022/11/15 03:17:18;;;;;;;10.95;8.05;;;12.80;75.80;;;;;;5031841;28;20064;-49
2022/11/15 03:20:10;;;;;;;8.50;7.18;;;12.80;75.80;;;;;;5018607;28;20116;-49
2022/11/15 03:23:00;;;;;;;9.68;7.40;;;12.90;75.80;;;;;;5018315;28;20061;-46
2022/11/15 03:25:48;;;;;;;10.02;8.27;;;12.90;75.70;;;;;;5017423;28;20188;-46
2022/11/15 03:28:49;;;;;;;11.35;7.53;;;12.90;75.80;;;;;;5013854;28;20137;-49
2022/11/15 03:31:46;;;;;;;8.20;6.55;;;12.90;75.90;;;;;;5018671;28;20048;-48
2022/11/15 03:34:44;;;;;;;7.22;6.20;;;12.90;75.80;;;;;;5016679;28;20525;-51
2022/11/15 03:37:37;;;;;;;8.15;6.60;;;13.00;76.10;;;;;;5012437;28;20104;-47
2022/11/15 03:40:25;;;;;;;;;;;13.00;76.20;;;;;;5018931;28;20110;-51
2022/11/15 03:43:45;;;;;;;9.15;6.20;;;13.10;76.90;;;;;;5024607;28;20071;-48
2022/11/15 03:46:48;;;;;;;8.55;6.53;;;13.10;75.70;;;;;;5024181;28;20465;-48
2022/11/15 03:49:36;;;;;;;;;;;13.10;76.30;;;;;;5018285;28;20048;-48
2022/11/15 03:52:24;;;;;;;7.38;6.22;;;13.10;76.90;;;;;;5025411;28;20385;-48
2022/11/15 03:55:15;;;;;;;7.68;6.95;;;13.10;75.80;;;;;;5013244;28;20410;-46
2022/11/15 03:58:02;;;;;;;10.32;6.60;;;13.10;75.90;;;;;;5008735;28;20462;-47
2022/11/15 04:00:48;;;;;;;7.18;6.47;;;13.10;75.80;;;;;;5023334;28;20056;-50
2022/11/15 04:03:37;;;;;;;8.05;6.90;;;13.10;75.90;;;;;;5027950;28;20049;-48
2022/11/15 04:06:35;;;;;;;8.32;7.10;;;13.10;76.00;;;;;;5016669;28;20056;-50
2022/11/15 04:09:20;;;;;;;7.55;6.55;;;13.10;76.30;;;;;;5021047;28;20064;-48
2022/11/15 04:12:08;;;;;;;7.53;6.82;;;13.10;76.30;;;;;;5012779;28;20123;-48
2022/11/15 04:15:06;;;;;;;9.27;7.45;;;13.10;76.40;;;;;;5008871;28;20074;-49
2022/11/15 04:17:55;;;;;;;8.25;6.38;;;13.10;76.60;;;;;;5018878;28;20057;-47
2022/11/15 04:26:52;;;;;;;9.02;6.95;;;13.20;76.80;;;;;;5009600;28;20053;-51
2022/11/15 04:29:37;;;;;;;10.55;7.80;;;13.20;76.70;;;;;;5015797;28;20108;-47
2022/11/15 04:32:23;;;;;;;9.88;7.85;;;13.20;76.80;;;;;;5004929;28;20179;-45
2022/11/15 04:35:11;;;;;;;7.65;6.88;;;13.20;77.00;;;;;;5023609;28;20052;-49
2022/11/15 04:38:02;;;;;;;9.80;7.45;;;13.20;76.90;;;;;;5024404;28;20060;-46
2022/11/15 04:40:50;;;;;;;10.48;8.27;;;13.20;77.00;;;;;;5029050;28;20060;-46
2022/11/15 04:43:40;;;;;;;9.23;7.10;;;13.30;76.90;;;;;;5017918;28;20053;-49
2022/11/15 04:46:25;;;;;;;9.98;6.53;;;13.30;76.80;;;;;;5016290;28;20048;-46
2022/11/15 04:49:12;;;;;;;9.18;6.72;;;13.30;76.70;;;;;;4992702;28;20057;-48
2022/11/15 04:52:03;;;;;;;8.65;6.43;;;13.30;76.60;;;;;;5003609;28;20057;-51
2022/11/15 04:54:48;;;;;;;8.27;7.22;;;13.20;76.50;;;;;;5006104;28;20053;-49
2022/11/15 04:57:37;;;;;;;7.10;6.40;;;13.30;76.50;;;;;;5021325;28;20053;-50
2022/11/15 05:00:24;;;;;;;9.25;6.82;;;13.20;76.50;;;;;;4992584;28;20069;-50
2022/11/15 05:06:19;;;;;;;7.60;6.50;;;13.20;76.40;;;;;;5013162;28;20139;-51
2022/11/15 05:09:07;;;;;;;6.90;6.20;;;13.20;76.40;;;;;;5030465;28;20115;-50
2022/11/15 05:11:52;;;;;;;7.38;6.65;;;13.20;76.50;;;;;;5029830;28;20061;-50
2022/11/15 05:14:37;;;;;;;7.50;6.57;;;13.20;76.60;;;;;;5013055;28;20067;-48
2022/11/15 05:17:23;;;;;;;7.25;6.28;;;13.20;76.60;;;;;;5019630;28;20057;-48
2022/11/15 05:20:08;;;;;;;6.22;5.55;;;13.20;76.70;;;;;;5011759;28;20135;-50
2022/11/15 05:22:55;;;;;;;6.22;5.50;;;13.20;76.70;;;;;;5010012;28;20061;-51
2022/11/15 05:25:42;;;;;;;8.27;6.10;;;13.20;76.60;;;;;;5015401;28;20052;-51
2022/11/15 05:28:28;;;;;;;6.78;6.07;;;13.20;76.60;;;;;;4992036;28;20053;-50
2022/11/15 05:31:17;;;;;;;6.95;6.20;;;13.20;76.70;;;;;;5005474;28;20046;-51
2022/11/15 05:34:04;;;;;;;8.27;5.78;;;13.20;76.80;;;;;;5020901;28;20108;-47
2022/11/15 05:36:51;;;;;;;6.93;6.22;;;13.20;77.10;;;;;;5023019;28;20057;-48
2022/11/15 05:39:36;;;;;;;6.57;5.90;;;13.20;77.10;;;;;;5031260;28;20056;-48
2022/11/15 05:42:22;;;;;;;6.65;5.85;;;13.20;77.30;;;;;;5016132;28;20552;-46
2022/11/15 05:45:09;;;;;;;6.38;5.60;;;13.30;77.50;;;;;;5021706;28;20099;-51
2022/11/15 05:48:00;;;;;;;7.40;5.75;;;13.30;77.60;;;;;;5031101;28;20592;-51
2022/11/15 05:50:48;;;;;;;5.85;5.25;;;13.30;77.60;;;;;;5013128;28;21263;-51
2022/11/15 05:53:37;;;;;;;6.03;5.13;;;13.30;77.30;;;;;;5013702;28;20525;-49
2022/11/15 05:56:22;;;;;;;5.05;4.55;;;13.30;77.40;;;;;;4991623;28;20060;-49
2022/11/15 05:59:08;;;;;;;5.55;4.85;;;13.30;77.60;;;;;;5003454;28;20064;-48
2022/11/15 06:01:58;;;;;;;5.38;4.40;;;13.30;77.70;;;;;;5018656;28;20049;-46
2022/11/15 06:04:43;;;;;;;6.40;4.18;;;13.40;77.80;;;;;;5030273;28;20055;-47
2022/11/15 06:07:30;;;;;;;5.18;4.47;;;13.40;77.90;;;;;;5016790;28;20049;-47
2022/11/15 06:10:18;;;;;;;3.83;3.53;;;13.40;77.90;;;;;;5013678;28;20048;-47
2022/11/15 06:13:12;;;;;;;4.03;3.45;;;13.50;77.90;;;;;;5020941;28;20065;-48
2022/11/15 06:15:58;;;;;;;3.72;3.17;;;13.50;77.90;;;;;;5030550;28;20142;-47
2022/11/15 06:18:43;;;;;;;4.05;3.65;;;13.50;77.80;;;;;;5012219;28;20064;-50
2022/11/15 06:21:31;;;;;;;4.05;3.65;;;13.50;77.90;;;;;;5018934;28;20057;-47
2022/11/15 06:24:21;;;;;;;3.00;2.75;;;13.50;78.00;;;;;;4990844;28;20447;-51
2022/11/15 06:27:09;;;;;;;3.40;3.08;;;13.50;77.90;;;;;;4997783;28;20053;-47
2022/11/15 06:29:54;;;;;;;3.72;3.30;;;13.60;78.00;;;;;;5012530;28;20057;-51
2022/11/15 06:32:42;;;;;;;3.17;2.88;;;13.60;78.00;;;;;;5020264;28;20549;-49
2022/11/15 06:35:28;;;;;;;3.88;3.22;;;13.60;78.00;;;;;;5021010;28;20136;-48
2022/11/15 06:38:15;;;;;;;2.85;2.58;;;13.70;78.10;;;;;;5019184;28;20072;-47
2022/11/15 06:41:08;;;;;;;1.50;1.35;;;13.70;78.00;;;;;;5029369;28;20114;-48
2022/11/15 06:43:53;;;;;;;2.25;1.90;;;13.80;78.10;;;;;;5013141;28;20428;-47
2022/11/15 06:46:38;;;;;;;3.15;2.05;;;13.80;77.90;;;;;;5015807;28;20057;-50
2022/11/15 06:49:31;;;;;;;1.35;1.25;;;13.80;77.90;;;;;;5013633;28;20132;-47
2022/11/15 06:52:21;;;;;;;1.52;1.40;;;13.90;77.90;;;;;;5006505;28;20049;-50
2022/11/15 06:55:07;;;;;;;2.13;1.92;;;13.90;77.70;;;;;;5005725;28;20054;-50
2022/11/15 06:57:53;;;;;;;2.90;1.40;;;13.90;77.50;;;;;;5024253;28;20103;-47
2022/11/15 07:00:38;;;;;;;1.70;1.60;;;13.90;77.30;;;;;;5029789;28;20532;-49
2022/11/15 07:03:24;;;;;;;2.38;1.60;;;14.00;77.20;;;;;;5032332;28;20146;-49
2022/11/15 07:06:09;;;;;;;1.35;1.10;;;14.00;77.10;;;;;;5013002;28;20056;-48
2022/11/15 07:08:55;;;;;;;1.15;1.05;;;14.00;76.90;;;;;;5024164;28;20533;-47
2022/11/15 07:11:40;;;;;;;1.48;1.33;;;14.00;76.80;;;;;;5034289;28;20056;-49
2022/11/15 07:14:31;;;;;;;5.32;2.67;;;14.00;76.60;;;;;;5013348;28;20049;-48
2022/11/15 07:17:18;;;;;;;3.25;2.47;;;14.10;76.60;;;;;;5015145;28;20135;-49
2022/11/15 07:20:04;;;;;;;3.88;2.50;;;14.10;76.40;;;;;;5014769;28;20057;-51
2022/11/15 07:22:49;;;;;;;2.75;2.22;;;14.10;76.40;;;;;;5010856;28;20060;-48
2022/11/15 07:25:35;;;;;;;4.03;1.90;;;14.00;76.20;;;;;;5018467;28;20068;-47
2022/11/15 07:28:20;;;;;;;2.08;1.60;;;14.00;76.20;;;;;;5015376;28;20624;-47
2022/11/15 07:31:09;;;;;;;1.77;1.67;;;14.00;76.20;;;;;;5014367;28;20057;-48
2022/11/15 07:33:56;;;;;;;1.60;1.50;;;14.00;76.20;;;;;;5017026;28;20168;-47
2022/11/15 07:36:46;;;;;;;2.45;1.63;;;14.00;76.10;;;;;;5025777;28;20048;-47
2022/11/15 07:39:33;;;;;;;2.65;1.70;;;14.00;76.10;;;;;;5032270;28;20524;-47
2022/11/15 07:45:26;;;;;;;1.48;1.27;;;13.90;76.00;;;;;;5019936;28;20119;-47
2022/11/15 07:48:11;;;;;;;1.15;1.08;;;14.00;76.00;;;;;;5025484;28;20409;-51
2022/11/15 07:50:57;;;;;;;2.63;1.50;;;13.90;75.80;;;;;;5029612;28;20052;-51
2022/11/15 07:53:43;;;;;;;2.95;1.70;;;13.90;75.80;;;;;;5007059;28;20475;-48
2022/11/15 07:56:31;;;;;;;3.13;1.50;;;14.00;75.80;;;;;;5015930;28;20053;-51
2022/11/15 07:59:16;;;;;;;1.45;1.27;;;13.90;75.70;;;;;;5013990;28;20057;-49
2022/11/15 08:02:04;;;;;;;1.92;1.33;;;13.90;75.70;;;;;;5010876;28;20188;-51
2022/11/15 08:04:50;;;;;;;1.13;0.98;;;13.90;75.70;;;;;;5024742;28;20049;-48
2022/11/15 08:07:35;;;;;;;1.52;0.98;;;13.90;75.80;;;;;;5033152;28;20052;-51
2022/11/15 08:10:22;;;;;;;1.33;0.90;;;13.90;75.70;;;;;;5019289;28;20048;-49
2022/11/15 08:13:10;;;;;;;2.35;1.00;;;13.90;75.60;;;;;;5024295;28;20068;-49
2022/11/15 08:16:01;;;;;;;2.17;1.15;;;13.90;75.50;;;;;;5031651;28;20060;-50
2022/11/15 08:18:49;;;;;;;3.15;0.93;;;14.00;75.60;;;;;;5012379;28;20065;-47
2022/11/15 08:21:37;;;;;;;1.90;0.90;;;14.00;75.60;;;;;;5015482;28;20147;-47
2022/11/15 08:24:22;;;;;;;1.27;0.50;;;14.00;75.60;;;;;;5021112;28;20418;-48
2022/11/15 08:27:18;;;;;;;2.00;1.00;;;14.00;75.50;;;;;;5013084;28;20088;-50
2022/11/15 08:30:06;;;;;;;2.17;0.70;;;14.00;75.40;;;;;;5017011;28;20534;-49
2022/11/15 08:32:57;;;;;;;1.38;1.05;;;14.10;75.50;;;;;;5024528;28;20052;-49
2022/11/15 08:35:43;;;;;;;2.17;0.80;;;14.10;75.60;;;;;;5022136;28;20196;-51
2022/11/15 08:38:30;;;;;;;1.08;0.80;;;14.10;75.50;;;;;;5009711;28;20120;-50
2022/11/15 08:41:26;;;;;;;0.80;0.80;;;14.20;75.50;;;;;;5017188;28;20056;-49
2022/11/15 08:44:12;;;;;;;0.93;0.77;;;14.20;75.40;;;;;;5024225;28;20111;-49
2022/11/15 08:46:58;;;;;;;1.30;1.20;;;14.20;75.10;;;;;;5030832;28;20160;-47
2022/11/15 08:49:44;;;;;;;2.10;0.68;;;14.20;74.90;;;;;;5014488;28;20096;-48
2022/11/15 08:52:29;;;;;;;1.20;1.00;;;14.20;74.80;;;;;;5016976;28;20045;-48
2022/11/15 08:55:15;;;;;;;1.58;0.80;;;14.20;74.70;;;;;;5012862;28;20053;-46
2022/11/15 08:58:04;;;;;;;0.85;0.75;;;14.20;74.70;;;;;;5003238;28;20053;-47
2022/11/15 09:00:51;;;;;;;1.15;1.00;;;14.10;74.60;;;;;;5022510;28;20122;-48
2022/11/15 09:03:40;;;;;;;0.70;0.70;;;14.10;74.50;;;;;;5027230;28;20172;-47
2022/11/15 09:06:30;;;;;;;1.80;0.60;;;14.10;74.00;;;;;;5011227;28;20588;-49
2022/11/15 09:09:17;;;;;;;0.93;0.45;;;14.00;73.40;;;;;;5020559;28;20049;-50
2022/11/15 09:12:03;;;;;;;1.08;0.60;;;14.00;73.20;;;;;;5029574;28;20044;-50
2022/11/15 09:14:50;;;;;;;0.75;0.47;;;14.00;73.10;;;;;;5011782;28;20188;-50
2022/11/15 09:17:36;;;;;;;0.82;0.57;;;14.00;72.70;;;;;;5010226;28;20051;-51
2022/11/15 09:20:26;;;;;;;1.20;0.70;;;13.90;72.00;;;;;;5023527;28;20055;-51
2022/11/15 09:23:13;;;;;;;5.25;0.70;;;13.90;71.20;;;;;;5020357;28;20080;-51
2022/11/15 09:26:01;;;;;;;3.00;0.82;;;14.00;71.30;;;;;;5011360;28;20525;-51
2022/11/15 09:28:46;;;;;;;1.27;0.77;;;13.90;71.20;;;;;;5022921;28;20253;-51
2022/11/15 09:31:31;;;;;;;1.08;0.50;;;13.90;71.20;;;;;;5020421;28;20056;-51
2022/11/15 09:34:20;;;;;;;1.50;0.68;;;13.90;70.90;;;;;;5031381;28;20048;-51
2022/11/15 09:37:08;;;;;;;2.40;0.70;;;13.90;70.70;;;;;;5017350;28;20416;-51
2022/11/15 09:39:56;;;;;;;2.40;0.82;;;13.90;70.70;;;;;;5023667;28;20155;-51
2022/11/15 09:43:11;;;;;;;1.80;0.88;;;13.90;70.90;;;;;;5030980;28;20068;-51
2022/11/15 09:46:22;;;;;;;2.00;1.48;;;13.90;70.60;;;;;;5018455;28;20072;-50
2022/11/15 09:49:09;;;;;;;1.58;0.68;;;13.90;70.50;;;;;;5023521;28;20592;-51
2022/11/15 09:51:54;;;;;;;3.45;0.90;;;13.90;70.80;;;;;;5034927;28;20050;-51
2022/11/15 09:54:33;;;;;;;1.08;0.70;;;13.80;70.70;;;;;;5007980;28;20056;-51
2022/11/15 09:57:31;;;;;;;1.80;1.35;;;13.90;70.40;;;;;;5016632;28;20041;-50
2022/11/15 10:00:07;;;;;;;1.02;0.63;;;13.90;70.50;;;;;;5011038;28;20584;-50
2022/11/15 10:03:16;;;;;;;4.95;0.95;;;13.80;70.50;;;;;;5005443;28;20041;-50
2022/11/15 10:05:50;;;;;;;0.77;0.70;;;13.90;69.80;;;;;;5022533;28;20037;-51
2022/11/15 10:08:35;;;;;;;2.80;1.00;;;13.90;69.80;;;;;;5011421;28;20100;-52
2022/11/15 10:11:19;;;;;;;1.75;0.85;;;13.90;69.50;;;;;;5009764;28;20070;-51
2022/11/15 10:14:16;;;;;;;2.97;0.70;;;13.90;70.10;;;;;;5007857;28;20099;-50
2022/11/15 10:17:14;;;;;;;1.83;0.90;;;13.90;69.60;;;;;;5019128;28;20045;-51
2022/11/15 10:19:46;;;;;;;0.82;0.77;;;14.00;69.80;;;;;;5011491;28;20449;-51
2022/11/15 10:22:29;;;;;;;1.35;0.80;;;14.00;70.00;;;;;;5009385;28;20124;-51
2022/11/15 10:25:13;;;;;;;1.58;0.85;;;14.00;69.70;;;;;;5020082;28;20045;-51
2022/11/15 10:27:45;;;;;;;1.33;0.60;;;14.00;69.30;;;;;;5031067;28;20049;-52
2022/11/15 10:30:15;;;;;;;1.50;0.73;;;14.10;69.80;;;;;;5023591;28;20383;-52
2022/11/15 10:32:46;;;;;;;3.55;0.88;;;14.10;69.70;;;;;;5029877;28;20045;-49
2022/11/15 10:35:17;;;;;;;1.33;0.75;;;14.20;69.70;;;;;;5023362;28;20049;-52
2022/11/15 10:37:48;;;;;;;;;;;14.20;69.70;;;;;;5015525;28;20108;-47
2022/11/15 10:40:22;;;;;;;1.25;0.85;;;14.30;69.70;;;;;;5018949;28;19921;-48
2022/11/15 10:43:14;;;;;;;1.95;0.88;;;14.30;69.10;;;;;;5019454;28;20050;-52
2022/11/15 10:45:52;;;;;;;1.13;0.70;;;14.40;68.70;;;;;;4995216;28;20463;-52
2022/11/15 10:48:22;;;;;;;1.08;0.60;;;14.40;69.00;;;;;;5012605;28;20561;-51
2022/11/15 10:50:54;;;;;;;1.83;0.68;;;14.50;68.40;;;;;;5018078;28;20049;-52
2022/11/15 10:53:43;;;;;;;2.83;0.70;;;14.50;68.00;;;;;;5009442;28;20041;-49
2022/11/15 10:56:15;;;;;;;1.27;0.73;;;14.60;67.20;;;;;;5014658;28;20506;-50
2022/11/15 10:58:49;;;;;;;1.70;0.40;;;14.60;67.10;;;;;;5012466;28;20072;-51
2022/11/15 11:01:27;;;;;;;1.05;0.70;;;14.70;67.00;;;;;;5022449;28;20052;-51
2022/11/15 11:04:28;;;;;;;0.70;0.60;;;14.80;66.70;;;;;;5025882;28;20049;-51
2022/11/15 11:07:00;;;;;;;2.85;0.73;;;14.80;65.50;;;;;;5033553;28;20179;-48
2022/11/15 11:09:33;;;;;;;1.55;0.50;;;15.00;65.50;;;;;;5018084;28;20048;-48
2022/11/15 11:12:11;;;;;;;0.60;0.40;;;15.00;64.70;;;;;;5026127;28;20418;-49
2022/11/15 11:15:00;;;;;;;0.57;0.50;;;15.10;64.20;;;;;;5030734;28;20111;-51
2022/11/15 11:18:02;;;;;;;1.45;0.38;;;15.20;63.40;;;;;;5034271;28;20136;-51
2022/11/15 11:20:57;;;;;;;0.70;0.65;;;15.20;62.30;;;;;;5014575;28;20521;-47
2022/11/15 11:23:53;;;;;;;1.15;0.57;;;15.30;62.90;;;;;;5015855;28;20048;-49
2022/11/15 11:26:42;;;;;;;1.30;0.50;;;15.40;61.80;;;;;;5014149;28;20041;-47
2022/11/15 11:29:36;;;;;;;1.48;0.60;;;15.40;62.30;;;;;;5010768;28;20515;-51
2022/11/15 11:32:30;;;;;;;0.95;0.32;;;15.40;61.10;;;;;;5025120;28;20544;-50
2022/11/15 11:35:36;;;;;;;1.95;0.77;;;15.40;60.90;;;;;;5033898;28;20042;-48
2022/11/15 11:38:39;;;;;;;3.60;0.45;;;15.40;60.80;;;;;;5018798;28;20565;-48
2022/11/15 11:41:42;;;;;;;0.40;0.25;;;15.50;60.80;;;;;;5015199;28;20061;-48
2022/11/15 11:44:54;;;;;;;0.50;0.50;;;15.40;60.50;;;;;;4993693;28;20074;-48
2022/11/15 11:47:37;;;;;;;7.43;3.33;;;15.40;60.00;;;;;;5008460;28;20147;-48
2022/11/15 11:50:15;;;;;;;;;;;15.40;60.50;;;;;;5024237;28;20100;-49
2022/11/15 11:53:15;;;;;;;1.63;1.10;;;15.50;61.80;;;;;;5014258;28;19928;-48
2022/11/15 11:56:09;;;;;;;1.17;0.30;;;15.50;60.40;;;;;;5016188;28;20057;-52
2022/11/15 11:58:42;;;;;;;2.38;0.50;;;15.50;60.50;;;;;;5024435;28;20056;-48
2022/11/15 12:01:21;;;;;;;1.10;0.60;;;15.50;60.80;;;;;;5033442;28;20073;-48
2022/11/15 12:04:17;;;;;;;1.15;0.55;;;15.50;60.60;;;;;;5027252;28;20041;-47
2022/11/15 12:07:01;;;;;;;1.75;0.40;;;15.60;60.00;;;;;;5015368;28;20041;-52
2022/11/15 12:10:33;;;;;;;0.88;0.57;;;15.60;60.20;;;;;;5025047;28;20521;-48
2022/11/15 12:13:15;;;;;;;0.80;0.45;;;15.60;59.60;;;;;;5033053;28;20112;-48
2022/11/15 12:16:11;;;;;;;0.93;0.52;;;15.70;60.00;;;;;;5016374;28;20069;-49
2022/11/15 12:18:47;;;;;;;1.30;0.38;;;15.70;59.40;;;;;;5016921;28;20117;-48
2022/11/15 12:21:18;;;;;;;0.65;0.57;;;15.70;60.00;;;;;;4993646;28;20109;-47
2022/11/15 12:24:03;;;;;;;1.13;0.40;;;15.80;60.30;;;;;;5006508;28;20104;-47
2022/11/15 12:26:41;;;;;;;0.57;0.30;;;15.80;59.70;;;;;;5023291;28;20053;-49
2022/11/15 12:29:30;;;;;;;1.92;0.28;;;15.90;59.60;;;;;;5024594;28;20049;-46
2022/11/15 12:32:04;;;;;;;1.55;1.10;;;16.00;59.60;;;;;;5053016;22;20413;-48
2022/11/15 12:34:55;;;;;;;1.73;0.47;;;16.00;59.90;;;;;;5020389;28;20072;-46
2022/11/15 12:37:46;;;;;;;1.48;0.30;;;16.10;58.60;;;;;;5017833;28;20128;-50
2022/11/15 12:40:29;;;;;;;2.10;0.50;;;16.20;58.60;;;;;;5025660;28;20048;-45
2022/11/15 12:46:05;;;;;;;2.10;0.50;;;16.30;58.70;;;;;;5016795;28;20081;-47
2022/11/15 12:48:37;;;;;;;2.22;0.60;;;16.30;58.70;;;;;;5027112;28;20071;-47
2022/11/15 12:51:10;;;;;;;2.95;0.40;;;16.30;58.60;;;;;;5027138;28;20120;-48
2022/11/15 12:53:40;;;;;;;1.00;0.38;;;16.30;58.40;;;;;;5013417;28;20034;-46
2022/11/15 12:56:20;;;;;;;2.63;1.13;;;16.40;58.70;;;;;;5019904;28;20052;-49
2022/11/15 12:59:06;;;;;;;3.20;0.40;;;16.40;58.20;;;;;;5011954;28;20053;-47
2022/11/15 13:01:41;;;;;;;4.45;0.88;;;16.50;58.60;;;;;;5020083;28;20192;-50
2022/11/15 13:04:30;;;;;;;0.73;0.40;;;16.60;58.40;;;;;;5012562;28;20065;-48
2022/11/15 13:07:07;;;;;;;0.83;0.43;;;16.70;57.90;;;;;;5030011;28;20076;-45
2022/11/15 13:09:54;;;;;;;0.93;0.50;;;16.70;58.30;;;;;;5040156;28;20303;-44
2022/11/15 13:12:34;;;;;;;1.75;0.35;;;16.80;57.80;;;;;;5020775;28;20040;-47
2022/11/15 13:15:23;;;;;;;2.65;0.60;;;16.80;57.80;;;;;;5006842;28;20095;-45
2022/11/15 13:17:55;;;;;;;3.03;0.55;;;16.90;57.00;;;;;;5032047;28;20050;-47
2022/11/15 13:20:30;;;;;;;1.30;0.65;;;16.90;57.80;;;;;;5022265;28;20409;-46
2022/11/15 13:23:30;;;;;;;3.05;0.47;;;16.90;57.40;;;;;;5022493;28;20116;-46
2022/11/15 13:26:18;;;;;;;1.70;0.80;;;17.00;57.60;;;;;;4979197;28;20054;-46
2022/11/15 13:29:00;;;;;;;3.35;0.70;;;17.00;57.40;;;;;;5015136;28;20406;-47
2022/11/15 13:31:34;;;;;;;1.98;0.80;;;17.00;58.10;;;;;;5025955;28;20522;-46
2022/11/15 13:34:20;;;;;;;2.13;0.82;;;17.10;57.60;;;;;;5029861;28;20084;-45
2022/11/15 13:37:32;;;;;;;1.77;0.60;;;17.10;56.80;;;;;;5031557;28;20114;-45
2022/11/15 13:40:18;;;;;;;4.53;0.57;;;17.10;57.20;;;;;;5020630;28;20565;-48
2022/11/15 13:42:52;;;;;;;1.52;0.90;;;17.10;58.70;;;;;;5015597;28;20065;-45
2022/11/15 13:45:38;;;;;;;4.13;0.82;;;17.10;57.90;;;;;;4992126;28;20042;-48
2022/11/15 13:48:13;;;;;;;2.63;0.95;;;17.10;58.00;;;;;;5015996;28;20058;-46
2022/11/15 13:50:46;;;;;;;2.05;0.73;;;17.10;58.00;;;;;;5014676;28;20048;-45
2022/11/15 13:53:30;;;;;;;2.28;0.60;;;17.10;58.30;;;;;;5004236;28;20125;-48
2022/11/15 13:56:22;;;;;;;3.42;0.55;;;17.10;58.00;;;;;;5013898;28;20057;-45
2022/11/15 13:58:59;;;;;;;2.92;0.82;;;17.10;58.00;;;;;;5013982;28;20042;-47
2022/11/15 14:01:34;;;;;;;1.67;0.50;;;17.10;58.10;;;;;;5013132;28;20084;-45
2022/11/15 14:04:08;;;;;;;2.42;1.05;;;17.10;58.10;;;;;;5029066;28;20045;-49
2022/11/15 14:06:45;;;;;;;0.82;0.60;;;17.00;58.40;;;;;;5026184;28;20041;-45
2022/11/15 14:09:39;;;;;;;2.33;0.80;;;17.00;58.10;;;;;;5011615;28;20053;-46
2022/11/15 14:12:50;;;;;;;0.93;0.70;;;16.90;57.90;;;;;;5011277;28;20080;-46
2022/11/15 14:15:36;;;;;;;1.60;0.70;;;16.90;58.30;;;;;;4985506;28;20076;-45
2022/11/15 14:18:49;;;;;;;1.20;0.47;;;16.80;58.90;;;;;;5024315;28;20042;-49
2022/11/15 14:21:19;;;;;;;0.93;0.45;;;16.70;58.70;;;;;;5022833;28;20041;-50
2022/11/15 14:23:46;;;;;;;2.17;1.02;;;16.70;59.50;;;;;;5014860;28;20046;-49
2022/11/15 14:26:35;;;;;;;1.63;1.45;;;16.60;59.80;;;;;;5016276;28;20068;-48
2022/11/15 14:29:30;;;;;;;2.92;1.00;;;16.60;59.50;;;;;;5020427;28;20042;-49
2022/11/15 14:32:23;;;;;;;3.30;0.80;;;16.60;59.70;;;;;;5028286;28;20076;-48
2022/11/15 14:35:03;;;;;;;4.57;0.95;;;16.50;60.00;;;;;;5023615;28;20060;-49
2022/11/15 14:37:39;;;;;;;3.08;1.13;;;16.50;60.60;;;;;;5024721;28;20045;-49
2022/11/15 14:40:16;;;;;;;2.28;0.75;;;16.50;60.80;;;;;;5021543;28;20535;-49
2022/11/15 14:42:50;;;;;;;3.63;1.90;;;16.40;60.70;;;;;;5027546;28;20049;-49
2022/11/15 14:45:32;;;;;;;4.50;2.20;;;16.40;61.10;;;;;;5021056;28;20044;-47
2022/11/15 14:48:04;;;;;;;4.43;2.33;;;16.40;61.20;;;;;;5022397;28;20125;-50